createdAt,value
2023-06-18T00:00:10.373Z,21.90
2023-06-18T00:02:37.719Z,21.90
2023-06-18T00:05:05.645Z,21.80
2023-06-18T00:07:33.029Z,21.80
2023-06-18T00:10:00.500Z,21.80
2023-06-18T00:12:27.761Z,21.80
2023-06-18T00:14:55.153Z,21.80
2023-06-18T00:17:24.724Z,21.70
2023-06-18T00:19:52.302Z,21.70
2023-06-18T00:22:19.687Z,21.70
2023-06-18T00:24:46.965Z,21.60
2023-06-18T00:27:14.534Z,21.60
2023-06-18T00:29:41.953Z,21.60
2023-06-18T00:32:09.350Z,21.60
2023-06-18T00:34:39.125Z,21.60
2023-06-18T00:37:10.726Z,21.50
2023-06-18T00:39:38.843Z,21.50
2023-06-18T00:42:12.246Z,21.50
2023-06-18T00:44:41.804Z,21.40
2023-06-18T00:47:13.741Z,21.40
2023-06-18T00:49:45.316Z,21.40
2023-06-18T00:52:15.916Z,21.40
2023-06-18T00:54:46.090Z,21.40
2023-06-18T00:57:18.701Z,21.40
2023-06-18T00:59:46.320Z,21.30
2023-06-18T01:02:14.225Z,21.30
2023-06-18T01:04:42.795Z,21.20
2023-06-18T01:07:14.418Z,21.20
2023-06-18T01:09:54.217Z,21.20
2023-06-18T01:12:28.751Z,21.20
2023-06-18T01:15:01.273Z,21.10
2023-06-18T01:17:35.033Z,21.10
2023-06-18T01:20:11.830Z,21.10
2023-06-18T01:22:54.460Z,21.00
2023-06-18T01:25:23.836Z,21.00
2023-06-18T01:27:51.471Z,21.00
2023-06-18T01:30:19.202Z,20.90
2023-06-18T01:32:49.508Z,20.90
2023-06-18T01:35:17.887Z,20.80
2023-06-18T01:38:09.547Z,20.80
2023-06-18T01:40:50.770Z,20.80
2023-06-18T01:43:28.648Z,20.80
2023-06-18T01:46:07.878Z,20.80
2023-06-18T01:48:52.837Z,20.70
2023-06-18T01:51:22.086Z,20.70
2023-06-18T01:53:56.309Z,20.80
2023-06-18T01:56:24.885Z,20.80
2023-06-18T01:58:54.397Z,20.70
2023-06-18T02:01:22.375Z,20.70
2023-06-18T02:03:49.841Z,20.70
2023-06-18T02:06:19.792Z,20.70
2023-06-18T02:08:49.579Z,20.70
2023-06-18T02:11:18.999Z,20.60
2023-06-18T02:13:48.673Z,20.60
2023-06-18T02:16:16.068Z,20.60
2023-06-18T02:18:45.572Z,20.60
2023-06-18T02:21:12.857Z,20.60
2023-06-18T02:23:40.186Z,20.60
2023-06-18T02:26:09.911Z,20.50
2023-06-18T02:28:37.284Z,20.50
2023-06-18T02:31:07.048Z,20.50
2023-06-18T02:33:34.404Z,20.40
2023-06-18T02:36:03.867Z,20.40
2023-06-18T02:38:31.128Z,20.40
2023-06-18T02:40:58.549Z,20.30
2023-06-18T02:43:32.234Z,20.30
2023-06-18T02:46:02.162Z,20.30
2023-06-18T02:48:29.532Z,20.30
2023-06-18T02:50:59.508Z,20.20
2023-06-18T02:53:26.832Z,20.20
2023-06-18T02:55:54.125Z,20.20
2023-06-18T02:58:29.268Z,20.20
2023-06-18T03:01:00.997Z,20.20
2023-06-18T03:03:31.220Z,20.10
2023-06-18T03:05:59.168Z,20.10
2023-06-18T03:08:29.120Z,20.10
2023-06-18T03:10:56.452Z,20.10
2023-06-18T03:13:23.833Z,20.10
2023-06-18T03:15:51.189Z,20.10
2023-06-18T03:18:18.464Z,20.10
2023-06-18T03:20:48.173Z,20.10
2023-06-18T03:23:15.636Z,20.20
2023-06-18T03:25:43.119Z,20.20
2023-06-18T03:28:14.878Z,20.20
2023-06-18T03:30:42.391Z,20.20
2023-06-18T03:33:10.048Z,20.20
2023-06-18T03:35:39.933Z,20.20
2023-06-18T03:38:09.798Z,20.20
2023-06-18T03:40:37.117Z,20.20
2023-06-18T03:43:04.398Z,20.20
2023-06-18T03:45:31.761Z,20.20
2023-06-18T03:48:01.713Z,20.20
2023-06-18T03:50:29.251Z,20.20
2023-06-18T03:52:56.775Z,20.30
2023-06-18T03:55:28.719Z,20.20
2023-06-18T03:57:56.010Z,20.20
2023-06-18T04:00:23.522Z,20.20
2023-06-18T04:02:53.379Z,20.20
2023-06-18T04:05:23.025Z,20.20
2023-06-18T04:07:50.344Z,20.20
2023-06-18T04:10:17.733Z,20.20
2023-06-18T04:12:47.605Z,20.20
2023-06-18T04:15:19.358Z,20.20
2023-06-18T04:17:46.667Z,20.20
2023-06-18T04:20:14.108Z,20.20
2023-06-18T04:22:41.589Z,20.30
2023-06-18T04:25:09.387Z,20.20
2023-06-18T04:27:40.690Z,20.20
2023-06-18T04:30:09.143Z,20.20
2023-06-18T04:32:36.641Z,20.30
2023-06-18T04:35:06.821Z,20.30
2023-06-18T04:37:34.123Z,20.20
2023-06-18T04:40:05.302Z,20.20
2023-06-18T04:42:32.675Z,20.20
2023-06-18T04:45:00.414Z,20.20
2023-06-18T04:47:27.850Z,20.30
2023-06-18T04:49:55.202Z,20.30
2023-06-18T04:52:22.815Z,20.30
2023-06-18T04:54:50.211Z,20.30
2023-06-18T04:57:18.658Z,20.30
2023-06-18T04:59:46.089Z,20.30
2023-06-18T05:02:13.460Z,20.30
2023-06-18T05:04:43.889Z,20.30
2023-06-18T05:07:11.648Z,20.30
2023-06-18T05:09:38.951Z,20.40
2023-06-18T05:12:06.773Z,20.40
2023-06-18T05:14:36.296Z,20.40
2023-06-18T05:17:03.819Z,20.40
2023-06-18T05:19:33.523Z,20.40
2023-06-18T05:22:00.921Z,20.40
2023-06-18T05:24:30.714Z,20.50
2023-06-18T05:26:58.035Z,20.50
2023-06-18T05:29:25.326Z,20.60
2023-06-18T05:31:55.493Z,20.60
2023-06-18T05:34:22.758Z,20.60
2023-06-18T05:36:52.510Z,20.60
2023-06-18T05:39:19.799Z,20.60
2023-06-18T05:41:52.820Z,20.70
2023-06-18T05:44:22.887Z,20.70
2023-06-18T05:46:50.175Z,20.80
2023-06-18T05:49:17.630Z,20.80
2023-06-18T05:51:47.163Z,20.90
2023-06-18T05:54:14.718Z,20.90
2023-06-18T05:56:42.032Z,21.00
2023-06-18T05:59:09.329Z,21.00
2023-06-18T06:01:37.396Z,21.10
2023-06-18T06:04:05.280Z,21.10
2023-06-18T06:06:35.290Z,21.10
2023-06-18T06:09:02.582Z,21.20
2023-06-18T06:11:39.897Z,21.20
2023-06-18T06:14:13.805Z,21.30
2023-06-18T06:16:43.611Z,21.40
2023-06-18T06:19:10.907Z,21.40
2023-06-18T06:21:38.222Z,21.50
2023-06-18T06:24:05.810Z,21.50
2023-06-18T06:26:33.252Z,21.50
2023-06-18T06:29:02.150Z,21.60
2023-06-18T06:31:29.463Z,21.60
2023-06-18T06:33:58.972Z,21.60
2023-06-18T06:36:26.428Z,21.60
2023-06-18T06:38:53.713Z,21.70
2023-06-18T06:41:21.029Z,21.70
2023-06-18T06:43:52.052Z,21.70
2023-06-18T06:46:19.432Z,21.80
2023-06-18T06:48:46.801Z,21.90
2023-06-18T06:51:14.100Z,21.90
2023-06-18T06:53:41.574Z,22.00
2023-06-18T06:56:10.360Z,22.10
2023-06-18T06:58:42.298Z,22.10
2023-06-18T07:01:09.632Z,22.20
2023-06-18T07:03:41.958Z,22.20
2023-06-18T07:06:09.293Z,22.30
2023-06-18T07:08:39.524Z,22.40
2023-06-18T07:11:09.457Z,22.50
2023-06-18T07:13:39.513Z,22.50
2023-06-18T07:16:09.088Z,22.60
2023-06-18T07:18:38.730Z,22.70
2023-06-18T07:21:06.061Z,22.80
2023-06-18T07:23:36.073Z,22.90
2023-06-18T07:26:04.729Z,22.90
2023-06-18T07:28:34.289Z,23.00
2023-06-18T07:31:06.743Z,23.00
2023-06-18T07:33:34.038Z,23.10
2023-06-18T07:36:03.717Z,23.20
2023-06-18T07:38:31.133Z,23.30
2023-06-18T07:40:58.432Z,23.40
2023-06-18T07:43:28.169Z,23.50
2023-06-18T07:45:55.476Z,23.50
2023-06-18T07:48:22.802Z,23.60
2023-06-18T07:50:52.391Z,23.70
2023-06-18T07:53:19.679Z,23.80
2023-06-18T07:55:47.050Z,23.90
2023-06-18T07:58:14.344Z,24.00
2023-06-18T08:00:43.761Z,24.00
2023-06-18T08:03:11.071Z,24.10
2023-06-18T08:05:38.434Z,24.20
2023-06-18T08:08:05.913Z,24.20
2023-06-18T08:10:37.684Z,24.30
2023-06-18T08:13:05.096Z,24.40
2023-06-18T08:15:32.408Z,24.50
2023-06-18T08:17:59.787Z,24.50
2023-06-18T08:20:29.297Z,24.60
2023-06-18T08:22:59.461Z,24.60
2023-06-18T08:25:26.897Z,24.70
2023-06-18T08:27:57.717Z,24.80
2023-06-18T08:30:25.716Z,24.80
2023-06-18T08:32:58.205Z,24.90
2023-06-18T08:35:25.656Z,24.90
2023-06-18T08:37:52.989Z,25.00
2023-06-18T08:40:26.050Z,25.00
2023-06-18T08:43:06.187Z,25.10
2023-06-18T08:45:34.707Z,25.10
2023-06-18T08:48:19.362Z,25.30
2023-06-18T08:51:06.300Z,25.30
2023-06-18T08:53:55.264Z,25.40
2023-06-18T08:56:28.434Z,25.40
2023-06-18T08:58:58.639Z,25.50
2023-06-18T09:01:28.283Z,25.50
2023-06-18T09:03:59.640Z,25.60
2023-06-18T09:06:29.458Z,25.70
2023-06-18T09:08:59.574Z,25.80
2023-06-18T09:11:32.383Z,25.90
2023-06-18T09:14:02.662Z,25.90
2023-06-18T09:16:30.000Z,25.90
2023-06-18T09:18:57.787Z,26.00
2023-06-18T09:21:43.729Z,26.10
2023-06-18T09:24:21.343Z,26.20
2023-06-18T09:26:54.374Z,26.20
2023-06-18T09:29:28.031Z,26.20
2023-06-18T09:31:55.478Z,26.30
2023-06-18T09:34:25.117Z,26.30
2023-06-18T09:36:52.419Z,26.40
2023-06-18T09:39:25.517Z,26.40
2023-06-18T09:41:58.533Z,26.50
2023-06-18T09:44:28.158Z,26.50
2023-06-18T09:47:01.328Z,26.70
2023-06-18T09:49:32.017Z,26.70
2023-06-18T09:52:01.615Z,26.80
2023-06-18T09:54:39.724Z,26.80
2023-06-18T09:57:08.498Z,26.90
2023-06-18T09:59:38.588Z,27.00
2023-06-18T10:02:08.039Z,27.10
2023-06-18T10:04:35.571Z,27.20
2023-06-18T10:07:09.054Z,27.20
2023-06-18T10:09:41.079Z,27.30
2023-06-18T10:12:11.607Z,27.40
2023-06-18T10:14:40.242Z,27.50
2023-06-18T10:17:29.653Z,27.60
2023-06-18T10:20:10.747Z,27.70
2023-06-18T10:23:03.577Z,27.80
2023-06-18T10:25:32.036Z,28.00
2023-06-18T10:28:00.244Z,28.10
2023-06-18T10:30:28.879Z,28.10
2023-06-18T10:32:56.974Z,28.20
2023-06-18T10:35:25.264Z,28.30
2023-06-18T10:37:53.216Z,28.40
2023-06-18T10:40:21.609Z,28.50
2023-06-18T10:42:50.325Z,28.60
2023-06-18T10:45:20.304Z,28.70
2023-06-18T10:47:47.893Z,28.90
2023-06-18T10:50:18.159Z,29.00
2023-06-18T10:52:50.756Z,29.00
2023-06-18T10:55:27.966Z,29.10
2023-06-18T10:58:04.680Z,29.20
2023-06-18T11:00:45.430Z,29.30
2023-06-18T11:03:16.016Z,29.40
2023-06-18T11:05:55.127Z,29.50
2023-06-18T11:08:28.271Z,29.60
2023-06-18T11:11:09.307Z,29.70
2023-06-18T11:13:41.649Z,29.90
2023-06-18T11:16:17.432Z,30.00
2023-06-18T11:18:47.893Z,30.00
2023-06-18T11:21:20.184Z,30.10
2023-06-18T11:23:49.094Z,30.20
2023-06-18T11:26:23.763Z,30.30
2023-06-18T11:28:53.922Z,30.40
2023-06-18T11:31:21.336Z,30.50
2023-06-18T11:33:50.821Z,30.60
2023-06-18T11:36:21.787Z,30.70
2023-06-18T11:38:52.869Z,30.70
2023-06-18T11:41:20.908Z,30.90
2023-06-18T11:43:51.450Z,31.10
2023-06-18T11:46:30.270Z,31.20
2023-06-18T11:49:00.669Z,31.30
2023-06-18T11:51:30.294Z,31.40
2023-06-18T11:54:00.299Z,31.50
2023-06-18T11:56:30.696Z,31.60
2023-06-18T11:59:01.038Z,31.80
2023-06-18T12:01:33.247Z,32.00
2023-06-18T12:04:09.835Z,32.20
2023-06-18T12:06:41.751Z,32.60
2023-06-18T12:09:13.346Z,32.90
2023-06-18T12:11:49.977Z,33.30
2023-06-18T12:14:45.453Z,33.80
2023-06-18T12:17:29.464Z,34.30
2023-06-18T12:20:08.385Z,34.90
2023-06-18T12:22:39.734Z,35.40
2023-06-18T12:25:10.498Z,35.90
2023-06-18T12:27:37.713Z,36.40
2023-06-18T12:30:09.540Z,36.80
2023-06-18T12:32:38.183Z,37.30
2023-06-18T12:35:18.750Z,37.80
2023-06-18T12:37:49.704Z,38.30
2023-06-18T12:40:25.856Z,38.90
2023-06-18T12:42:53.572Z,39.30
2023-06-18T12:45:29.317Z,39.80
2023-06-18T12:48:00.905Z,40.20
2023-06-18T12:50:30.526Z,40.60
2023-06-18T12:53:00.191Z,41.00
2023-06-18T12:55:29.026Z,41.30
2023-06-18T12:57:56.316Z,41.60
2023-06-18T13:00:27.940Z,41.90
2023-06-18T13:02:55.361Z,42.00
2023-06-18T13:05:23.911Z,42.20
2023-06-18T13:07:53.068Z,42.30
2023-06-18T13:10:23.971Z,42.30
2023-06-18T13:12:51.254Z,42.10
2023-06-18T13:15:21.241Z,42.00
2023-06-18T13:17:48.768Z,41.70
2023-06-18T13:20:15.977Z,41.50
2023-06-18T13:22:45.761Z,41.40
2023-06-18T13:25:16.282Z,41.10
2023-06-18T13:27:43.929Z,41.10
2023-06-18T13:30:11.678Z,41.00
2023-06-18T13:32:39.267Z,41.00
2023-06-18T13:35:07.230Z,41.00
2023-06-18T13:37:37.095Z,41.10
2023-06-18T13:40:05.309Z,41.20
2023-06-18T13:42:32.631Z,41.30
2023-06-18T13:45:02.972Z,41.40
2023-06-18T13:47:30.372Z,41.60
2023-06-18T13:49:57.965Z,41.60
2023-06-18T13:52:25.445Z,41.50
2023-06-18T13:54:52.788Z,41.20
2023-06-18T13:57:20.128Z,40.80
2023-06-18T13:59:52.043Z,40.40
2023-06-18T14:02:19.348Z,39.80
2023-06-18T14:04:47.475Z,39.30
2023-06-18T14:07:14.855Z,38.80
2023-06-18T14:09:44.796Z,38.20
2023-06-18T14:12:12.189Z,37.70
2023-06-18T14:14:42.159Z,37.30
2023-06-18T14:17:12.615Z,36.90
2023-06-18T14:19:41.078Z,36.40
2023-06-18T14:22:10.924Z,36.10
2023-06-18T14:24:42.843Z,35.80
2023-06-18T14:27:12.373Z,35.50
2023-06-18T14:29:39.809Z,35.20
2023-06-18T14:32:07.421Z,34.90
2023-06-18T14:34:34.720Z,34.70
2023-06-18T14:37:02.011Z,34.40
2023-06-18T14:39:32.139Z,34.20
2023-06-18T14:42:04.335Z,34.00
2023-06-18T14:44:33.829Z,33.90
2023-06-18T14:47:03.555Z,33.70
2023-06-18T14:49:31.048Z,33.50
2023-06-18T14:52:00.713Z,33.40
2023-06-18T14:54:28.165Z,33.20
2023-06-18T14:56:55.566Z,33.10
2023-06-18T14:59:22.889Z,32.90
2023-06-18T15:01:50.344Z,32.90
2023-06-18T15:04:18.040Z,32.80
2023-06-18T15:06:47.683Z,32.70
2023-06-18T15:09:15.033Z,32.60
2023-06-18T15:11:42.334Z,32.50
2023-06-18T15:14:09.601Z,32.50
2023-06-18T15:16:39.190Z,32.40
2023-06-18T15:19:11.110Z,32.40
2023-06-18T15:21:40.705Z,32.30
2023-06-18T15:24:10.603Z,32.20
2023-06-18T15:26:37.878Z,32.10
2023-06-18T15:29:06.275Z,32.10
2023-06-18T15:31:33.598Z,32.00
2023-06-18T15:34:02.950Z,32.00
2023-06-18T15:36:30.460Z,31.90
2023-06-18T15:39:00.912Z,31.90
2023-06-18T15:41:28.342Z,31.80
2023-06-18T15:43:55.796Z,31.70
2023-06-18T15:46:23.106Z,31.70
2023-06-18T15:48:50.454Z,31.60
2023-06-18T15:51:17.824Z,31.60
2023-06-18T15:53:45.157Z,31.50
2023-06-18T15:56:14.897Z,31.50
2023-06-18T15:58:42.159Z,31.50
2023-06-18T16:01:09.428Z,31.40
2023-06-18T16:03:40.021Z,31.40
2023-06-18T16:06:07.368Z,31.30
2023-06-18T16:08:34.861Z,31.30
2023-06-18T16:11:02.211Z,31.20
2023-06-18T16:13:31.830Z,31.20
2023-06-18T16:15:59.417Z,31.20
2023-06-18T16:18:26.836Z,31.10
2023-06-18T16:20:54.116Z,31.10
2023-06-18T16:23:21.831Z,31.10
2023-06-18T16:25:49.103Z,31.00
2023-06-18T16:28:17.209Z,31.00
2023-06-18T16:30:44.522Z,30.90
2023-06-18T16:33:11.828Z,30.90
2023-06-18T16:35:39.170Z,30.90
2023-06-18T16:38:06.543Z,30.80
2023-06-18T16:40:34.213Z,30.80
2023-06-18T16:43:06.425Z,30.80
2023-06-18T16:45:33.793Z,30.70
2023-06-18T16:48:02.269Z,30.70
2023-06-18T16:50:31.690Z,30.70
2023-06-18T16:53:01.865Z,30.60
2023-06-18T16:55:29.310Z,30.60
2023-06-18T16:57:58.963Z,30.60
2023-06-18T17:00:26.331Z,30.60
2023-06-18T17:02:56.413Z,30.50
2023-06-18T17:05:25.194Z,30.50
2023-06-18T17:07:52.811Z,30.50
2023-06-18T17:10:22.524Z,30.50
2023-06-18T17:12:49.982Z,30.50
2023-06-18T17:15:18.474Z,30.50
2023-06-18T17:17:48.056Z,30.40
2023-06-18T17:20:17.777Z,30.40
2023-06-18T17:22:45.077Z,30.40
2023-06-18T17:25:15.425Z,30.30
2023-06-18T17:27:42.806Z,30.30
2023-06-18T17:30:10.908Z,30.30
2023-06-18T17:32:38.283Z,30.30
2023-06-18T17:35:08.489Z,30.30
2023-06-18T17:37:36.138Z,30.20
2023-06-18T17:40:06.530Z,30.20
2023-06-18T17:42:33.892Z,30.10
2023-06-18T17:45:01.261Z,30.10
2023-06-18T17:47:30.952Z,30.10
2023-06-18T17:49:58.795Z,30.10
2023-06-18T17:52:28.689Z,30.00
2023-06-18T17:54:55.943Z,30.00
2023-06-18T17:57:25.942Z,30.00
2023-06-18T17:59:53.331Z,29.90
2023-06-18T18:02:20.753Z,29.80
2023-06-18T18:04:48.230Z,29.80
2023-06-18T18:07:15.706Z,29.80
2023-06-18T18:09:43.239Z,29.70
2023-06-18T18:12:12.855Z,29.70
2023-06-18T18:14:40.938Z,29.60
2023-06-18T18:17:10.942Z,29.60
2023-06-18T18:19:45.332Z,29.50
2023-06-18T18:22:17.413Z,29.50
2023-06-18T18:24:47.366Z,29.40
2023-06-18T18:27:17.116Z,29.40
2023-06-18T18:29:44.446Z,29.30
2023-06-18T18:32:12.010Z,29.30
2023-06-18T18:34:39.460Z,29.30
2023-06-18T18:37:07.229Z,29.20
2023-06-18T18:39:34.681Z,29.20
2023-06-18T18:42:02.119Z,29.10
2023-06-18T18:44:29.402Z,29.10
2023-06-18T18:46:56.814Z,29.10
2023-06-18T18:49:27.808Z,29.00
2023-06-18T18:51:57.495Z,29.00
2023-06-18T18:54:27.165Z,28.90
2023-06-18T18:56:54.531Z,29.00
2023-06-18T18:59:22.774Z,29.00
2023-06-18T19:01:50.281Z,29.00
2023-06-18T19:04:17.621Z,28.90
2023-06-18T19:06:47.308Z,28.90
2023-06-18T19:09:14.661Z,28.90
2023-06-18T19:11:45.030Z,28.80
2023-06-18T19:14:12.353Z,28.80
2023-06-18T19:16:42.871Z,28.80
2023-06-18T19:19:10.375Z,28.70
2023-06-18T19:21:39.934Z,28.70
2023-06-18T19:24:07.288Z,28.60
2023-06-18T19:26:37.043Z,28.60
2023-06-18T19:29:05.889Z,28.50
2023-06-18T19:31:33.298Z,28.40
2023-06-18T19:34:06.168Z,28.30
2023-06-18T19:36:33.547Z,28.30
2023-06-18T19:39:01.375Z,28.30
2023-06-18T19:41:28.791Z,28.20
2023-06-18T19:43:58.694Z,28.10
2023-06-18T19:46:28.300Z,28.10
2023-06-18T19:48:55.666Z,28.00
2023-06-18T19:51:23.088Z,28.00
2023-06-18T19:53:50.418Z,27.90
2023-06-18T19:56:20.235Z,27.90
2023-06-18T19:58:47.522Z,27.80
2023-06-18T20:01:14.821Z,27.70
2023-06-18T20:03:44.896Z,27.70
2023-06-18T20:06:12.709Z,27.60
2023-06-18T20:08:42.665Z,27.50
2023-06-18T20:11:09.977Z,27.50
2023-06-18T20:13:37.360Z,27.40
2023-06-18T20:16:04.882Z,27.40
2023-06-18T20:18:34.735Z,27.30
2023-06-18T20:21:02.458Z,27.30
2023-06-18T20:23:31.328Z,27.20
2023-06-18T20:25:58.740Z,27.20
2023-06-18T20:28:28.545Z,27.10
2023-06-18T20:30:55.848Z,27.10
2023-06-18T20:33:23.207Z,27.00
2023-06-18T20:35:50.511Z,27.00
2023-06-18T20:38:20.832Z,26.90
2023-06-18T20:40:48.121Z,26.90
2023-06-18T20:43:16.719Z,26.80
2023-06-18T20:45:47.171Z,26.80
2023-06-18T20:48:17.272Z,26.80
2023-06-18T20:50:47.185Z,26.70
2023-06-18T20:53:14.589Z,26.70
2023-06-18T20:55:41.911Z,26.70
2023-06-18T20:58:09.273Z,26.60
2023-06-18T21:00:36.566Z,26.60
2023-06-18T21:03:04.133Z,26.50
2023-06-18T21:05:33.745Z,26.50
2023-06-18T21:08:03.592Z,26.50
2023-06-18T21:10:33.905Z,26.40
2023-06-18T21:13:03.445Z,26.40
2023-06-18T21:15:30.731Z,26.40
2023-06-18T21:18:00.269Z,26.30
2023-06-18T21:20:28.679Z,26.30
2023-06-18T21:22:58.573Z,26.20
2023-06-18T21:25:27.107Z,26.20
2023-06-18T21:27:57.427Z,26.10
2023-06-18T21:30:27.389Z,26.10
2023-06-18T21:32:54.800Z,26.10
2023-06-18T21:35:22.179Z,26.10
2023-06-18T21:37:49.463Z,26.00
2023-06-18T21:40:19.243Z,26.00
2023-06-18T21:42:51.552Z,25.80
2023-06-18T21:45:21.364Z,25.80
2023-06-18T21:47:51.157Z,25.80
2023-06-18T21:50:18.602Z,25.70
2023-06-18T21:52:48.125Z,25.70
2023-06-18T21:55:18.532Z,25.60
2023-06-18T21:57:45.893Z,25.60
2023-06-18T22:00:14.771Z,25.60
2023-06-18T22:02:42.164Z,25.50
2023-06-18T22:05:09.674Z,25.50
2023-06-18T22:07:37.144Z,25.50
2023-06-18T22:10:04.771Z,25.40
2023-06-18T22:12:34.532Z,25.40
2023-06-18T22:15:04.207Z,25.30
2023-06-18T22:17:31.674Z,25.30
2023-06-18T22:20:01.305Z,25.30
2023-06-18T22:22:28.666Z,25.20
2023-06-18T22:24:58.442Z,25.20
2023-06-18T22:27:28.276Z,25.20
2023-06-18T22:29:58.664Z,25.10
2023-06-18T22:32:26.167Z,25.10
2023-06-18T22:34:55.815Z,25.10
2023-06-18T22:37:23.238Z,25.00
2023-06-18T22:39:51.076Z,25.00
2023-06-18T22:42:21.198Z,25.00
2023-06-18T22:44:48.476Z,24.90
2023-06-18T22:47:18.462Z,24.90
2023-06-18T22:49:48.433Z,24.90
2023-06-18T22:52:16.008Z,24.90
2023-06-18T22:54:45.738Z,24.80
2023-06-18T22:57:15.251Z,24.80
2023-06-18T22:59:42.526Z,24.80
2023-06-18T23:02:09.874Z,24.80
2023-06-18T23:04:39.573Z,24.80
2023-06-18T23:07:09.341Z,24.70
2023-06-18T23:09:38.806Z,24.70
2023-06-18T23:12:09.032Z,24.70
2023-06-18T23:14:38.645Z,24.70
2023-06-18T23:17:06.099Z,24.70
2023-06-18T23:19:33.452Z,24.60
2023-06-18T23:22:06.658Z,24.60
2023-06-18T23:24:35.673Z,24.60
2023-06-18T23:27:03.331Z,24.60
2023-06-18T23:29:30.986Z,24.60
2023-06-18T23:31:58.272Z,24.60
2023-06-18T23:34:28.065Z,24.50
2023-06-18T23:36:59.763Z,24.50
2023-06-18T23:39:27.698Z,24.50
2023-06-18T23:41:55.257Z,24.50
2023-06-18T23:44:24.778Z,24.50
2023-06-18T23:46:55.486Z,24.40
2023-06-18T23:49:22.796Z,24.40
2023-06-18T23:51:50.376Z,24.40
2023-06-18T23:54:20.151Z,24.40
2023-06-18T23:56:49.620Z,24.40
2023-06-18T23:59:21.728Z,24.30
